Time;durP1;ratioP1;P1;durP2;ratioP2;P2;SDS_P1;SDS_P2;PMS_P1;PMS_P2;Temp;Humidity;BMP_temperature;BMP_pressure;BME280_temperature;BME280_humidity;BME280_pressure;Samples;Min_cycle;Max_cycle;Signal;HPM_P1;HPM_P2
2022/11/24 00:01:36;;;;;;;10.93;3.03;;;;;;;4.23;100.00;99634.97;6531531;22;20007;-78
2022/11/24 00:04:06;;;;;;;11.07;3.00;;;;;;;4.30;100.00;99635.66;6530272;22;20014;-78
2022/11/24 00:06:37;;;;;;;8.35;2.60;;;;;;;4.21;100.00;99636.75;6531123;22;20026;-79
2022/11/24 00:09:07;;;;;;;9.25;3.20;;;;;;;4.24;100.00;99635.81;6530269;22;20327;-79
2022/11/24 00:11:38;;;;;;;10.93;3.00;;;;;;;4.28;100.00;99640.03;6531266;22;19999;-79
2022/11/24 00:14:08;;;;;;;7.28;2.83;;;;;;;4.39;100.00;99640.59;6530501;22;19999;-79
2022/11/24 00:16:39;;;;;;;11.13;3.22;;;;;;;4.43;100.00;99635.31;6529937;22;20098;-79
2022/11/24 00:19:10;;;;;;;7.95;2.70;;;;;;;4.49;100.00;99637.72;6529717;22;20020;-78
2022/11/24 00:21:40;;;;;;;7.97;2.58;;;;;;;4.46;100.00;99642.16;6530796;22;19999;-79
2022/11/24 00:24:11;;;;;;;9.18;2.38;;;;;;;4.51;100.00;99646.31;6529363;22;20026;-78
2022/11/24 00:26:42;;;;;;;11.48;2.70;;;;;;;4.50;100.00;99648.94;6529753;22;20453;-79
2022/11/24 00:29:12;;;;;;;7.07;2.95;;;;;;;4.43;100.00;99647.41;6491942;22;20489;-78
2022/11/24 00:31:42;;;;;;;9.57;3.03;;;;;;;4.45;100.00;99650.78;6492597;22;20488;-78
2022/11/24 00:34:13;;;;;;;10.15;3.10;;;;;;;4.64;100.00;99650.25;6530349;22;20021;-78
2022/11/24 00:36:44;;;;;;;9.77;2.90;;;;;;;4.55;100.00;99653.09;6529906;22;20010;-78
2022/11/24 00:39:14;;;;;;;9.88;3.10;;;;;;;4.44;100.00;99652.53;6530739;22;20003;-78
2022/11/24 00:41:45;;;;;;;12.20;4.00;;;;;;;4.40;100.00;99666.44;6531363;22;20004;-78
2022/11/24 00:44:15;;;;;;;14.05;4.32;;;;;;;4.41;100.00;99664.66;6520140;22;20010;-79
2022/11/24 00:46:45;;;;;;;15.73;5.28;;;;;;;4.43;100.00;99668.09;6529546;22;20007;-79
2022/11/24 00:49:16;;;;;;;18.10;5.05;;;;;;;4.45;100.00;99676.66;6529003;22;20007;-77
2022/11/24 00:51:46;;;;;;;14.20;4.70;;;;;;;4.61;100.00;99681.38;6530857;22;20007;-78
2022/11/24 00:54:17;;;;;;;9.18;3.30;;;;;;;4.79;100.00;99669.72;6492816;22;20003;-79
2022/11/24 00:56:47;;;;;;;9.38;3.35;;;;;;;4.84;100.00;99675.59;6530367;22;20007;-79
2022/11/24 00:59:17;;;;;;;11.50;2.92;;;;;;;4.66;100.00;99676.94;6521352;22;20031;-78
2022/11/24 01:01:48;;;;;;;10.27;3.05;;;;;;;4.60;100.00;99671.94;6531905;22;20010;-79
2022/11/24 01:04:18;;;;;;;8.02;3.08;;;;;;;4.65;100.00;99684.75;6531875;22;20490;-78
2022/11/24 01:06:48;;;;;;;9.05;3.30;;;;;;;4.49;100.00;99694.63;6493681;22;19995;-78
2022/11/24 01:09:19;;;;;;;13.02;5.18;;;;;;;4.62;100.00;99679.66;6493274;22;20050;-79
2022/11/24 01:12:01;;;;;;;29.55;12.63;;;;;;;4.64;100.00;99683.88;6531139;22;20554;-79
2022/11/24 01:14:32;;;;;;;12.10;3.80;;;;;;;4.58;100.00;99689.22;6493290;22;20009;-79
2022/11/24 01:17:03;;;;;;;9.98;2.97;;;;;;;4.58;100.00;99689.22;6531529;22;20439;-79
2022/11/24 01:19:33;;;;;;;9.15;3.40;;;;;;;4.62;100.00;99685.66;6467427;22;20014;-78
2022/11/24 01:22:03;;;;;;;10.38;3.55;;;;;;;4.57;100.00;99700.47;6492706;22;20038;-79
2022/11/24 01:24:34;;;;;;;13.45;3.50;;;;;;;4.51;100.00;99698.06;6530808;22;20080;-78
2022/11/24 01:27:05;;;;;;;9.82;3.22;;;;;;;4.55;100.00;99696.22;6530952;22;20007;-79
2022/11/24 01:29:35;;;;;;;9.57;3.80;;;;;;;4.54;100.00;99699.69;6492525;22;20011;-78
2022/11/24 01:32:06;;;;;;;10.60;3.67;;;;;;;4.62;100.00;99703.78;6531343;22;20006;-79
2022/11/24 01:34:36;;;;;;;12.10;3.30;;;;;;;4.70;100.00;99716.53;6530576;22;20007;-79
2022/11/24 01:37:06;;;;;;;13.23;4.30;;;;;;;4.85;100.00;99704.06;6518417;22;20068;-79
2022/11/24 01:39:36;;;;;;;8.88;3.20;;;;;;;4.81;100.00;99702.41;6531358;22;20060;-79
2022/11/24 01:42:07;;;;;;;10.48;3.95;;;;;;;4.88;100.00;99714.31;6531332;22;20003;-78
2022/11/24 01:44:37;;;;;;;8.45;3.40;;;;;;;4.79;100.00;99708.53;6531436;22;20018;-78
2022/11/24 01:47:11;;;;;;;5.97;3.40;;;;;;;5.00;100.00;99713.97;6531122;22;20003;-79
2022/11/24 01:49:47;;;;;;;7.85;3.35;;;;;;;5.03;100.00;99710.47;6530806;22;20445;-78
2022/11/24 01:52:36;;;;;;;10.43;3.30;;;;;;;4.91;100.00;99719.41;6531313;22;20010;-79
2022/11/24 01:55:14;;;;;;;10.13;3.35;;;;;;;5.13;100.00;99730.03;6531319;22;20056;-78
2022/11/24 01:58:10;;;;;;;7.78;3.28;;;;;;;5.04;100.00;99723.38;6511795;22;20003;-79
2022/11/24 02:00:44;;;;;;;7.68;3.42;;;;;;;5.18;100.00;99718.63;6530300;22;20002;-79
2022/11/24 02:03:19;;;;;;;7.75;2.92;;;;;;;5.16;100.00;99719.59;6530330;22;19995;-79
2022/11/24 02:05:49;;;;;;;8.30;3.20;;;;;;;5.19;100.00;99722.09;6530254;22;20053;-78
2022/11/24 02:08:27;;;;;;;6.15;2.92;;;;;;;5.16;100.00;99719.59;6530668;22;20003;-78
2022/11/24 02:11:00;;;;;;;9.73;3.22;;;;;;;5.07;100.00;99715.53;6531080;22;20007;-79
2022/11/24 02:13:36;;;;;;;8.95;3.30;;;;;;;5.14;100.00;99719.63;6530343;22;20465;-79
2022/11/24 02:16:09;;;;;;;8.30;3.70;;;;;;;5.14;100.00;99722.22;6529955;22;20035;-78
2022/11/24 02:18:42;;;;;;;9.13;2.95;;;;;;;5.05;100.00;99730.25;6530383;22;19999;-79
2022/11/24 02:21:14;;;;;;;10.95;3.33;;;;;;;4.98;100.00;99728.69;6492092;22;20027;-79
2022/11/24 02:24:29;;;;;;;8.68;3.17;;;;;;;5.03;100.00;99739.81;6530857;22;20003;-79
2022/11/24 02:27:00;;;;;;;7.82;2.80;;;;;;;4.91;100.00;99734.94;6369637;23;20006;-79
2022/11/24 02:29:30;;;;;;;7.82;3.03;;;;;;;4.93;100.00;99735.75;6502647;22;20033;-79
2022/11/24 02:32:05;;;;;;;12.25;3.50;;;;;;;4.85;100.00;99734.25;6530117;22;20005;-79
2022/11/24 02:34:36;;;;;;;8.30;3.25;;;;;;;4.93;100.00;99735.75;6492242;22;20019;-78
2022/11/24 02:37:06;;;;;;;7.95;3.00;;;;;;;5.03;100.00;99734.63;6530055;22;20524;-79
2022/11/24 02:39:36;;;;;;;14.30;3.47;;;;;;;4.88;100.00;99742.78;6523100;22;19995;-70
2022/11/24 02:42:11;;;;;;;7.10;2.90;;;;;;;4.90;100.00;99741.00;6493736;22;20015;-71
2022/11/24 02:44:48;;;;;;;9.55;3.25;;;;;;;5.08;100.00;99737.94;6494538;22;20003;-72
2022/11/24 02:47:18;;;;;;;7.15;3.65;;;;;;;4.95;100.00;99739.13;6494487;22;20396;-71
2022/11/24 02:49:48;;;;;;;8.02;3.30;;;;;;;5.01;100.00;99743.31;6457316;22;20031;-71
2022/11/24 02:52:19;;;;;;;8.68;3.30;;;;;;;5.03;100.00;99739.81;6495330;22;20057;-72
2022/11/24 02:54:49;;;;;;;7.40;3.15;;;;;;;5.04;100.00;99743.22;6495205;22;20338;-71
2022/11/24 02:57:21;;;;;;;7.28;3.20;;;;;;;5.19;100.00;99741.06;6494820;22;20027;-71
2022/11/24 02:59:52;;;;;;;7.95;3.17;;;;;;;5.24;100.00;99739.22;6494415;22;20000;-72
2022/11/24 03:02:22;;;;;;;8.77;3.20;;;;;;;5.17;100.00;99745.44;6456795;22;20372;-71
2022/11/24 03:04:53;;;;;;;11.75;3.95;;;;;;;5.14;100.00;99742.94;6494776;22;20010;-71
2022/11/24 03:07:23;;;;;;;6.00;3.20;;;;;;;5.14;100.00;99747.28;6493709;22;20010;-71
2022/11/24 03:09:53;;;;;;;9.95;3.58;;;;;;;5.11;100.00;99749.94;6495002;22;20000;-71
2022/11/24 03:12:24;;;;;;;9.75;3.38;;;;;;;5.20;100.00;99758.31;6494954;22;20006;-72
2022/11/24 03:14:54;;;;;;;10.15;3.28;;;;;;;5.12;100.00;99751.66;6493498;22;20048;-71
2022/11/24 03:17:25;;;;;;;10.00;3.60;;;;;;;5.06;100.00;99752.66;6494799;22;20004;-71
2022/11/24 03:19:55;;;;;;;10.60;4.13;;;;;;;4.97;100.00;99760.66;6494564;22;19999;-71
2022/11/24 03:22:26;;;;;;;10.02;3.92;;;;;;;5.11;100.00;99755.13;6494721;22;20045;-71
2022/11/24 03:24:56;;;;;;;9.55;4.00;;;;;;;5.08;100.00;99760.38;6493120;22;20007;-71
2022/11/24 03:27:27;;;;;;;11.23;3.95;;;;;;;5.04;100.00;99769.97;6494117;22;20446;-71
2022/11/24 03:29:57;;;;;;;16.00;3.92;;;;;;;5.11;100.00;99758.56;6456748;22;20359;-71
2022/11/24 03:32:27;;;;;;;12.02;4.15;;;;;;;5.29;100.00;99763.22;6493565;22;20019;-71
2022/11/24 03:34:58;;;;;;;7.82;3.67;;;;;;;5.27;100.00;99761.56;6493812;22;20003;-71
2022/11/24 03:37:28;;;;;;;10.70;4.05;;;;;;;5.17;100.00;99767.91;6494122;22;20030;-71
2022/11/24 03:39:58;;;;;;;9.30;3.95;;;;;;;5.16;100.00;99767.03;6496160;22;20010;-71
2022/11/24 03:42:29;;;;;;;9.13;3.88;;;;;;;5.16;100.00;99767.03;6496534;22;20010;-71
2022/11/24 03:44:59;;;;;;;13.55;4.13;;;;;;;5.20;100.00;99776.44;6496907;22;19999;-71
2022/11/24 03:47:30;;;;;;;7.93;4.03;;;;;;;5.28;100.00;99774.47;6458764;22;20000;-71
2022/11/24 03:50:00;;;;;;;8.82;3.90;;;;;;;5.29;100.00;99781.38;6496408;22;20003;-71
2022/11/24 03:52:30;;;;;;;12.93;4.43;;;;;;;5.29;100.00;99780.53;6496104;22;20006;-72
2022/11/24 03:55:01;;;;;;;9.43;3.72;;;;;;;5.20;100.00;99778.19;6458542;22;20015;-71
2022/11/24 03:57:31;;;;;;;10.23;4.07;;;;;;;5.16;100.00;99785.16;6494956;22;20164;-71
2022/11/24 04:00:03;;;;;;;11.38;3.60;;;;;;;5.20;100.00;99789.41;6496092;22;19996;-71
2022/11/24 04:02:34;;;;;;;10.80;4.90;;;;;;;5.13;100.00;99792.19;6495952;22;20003;-71
2022/11/24 04:05:05;;;;;;;8.02;4.13;;;;;;;5.28;100.00;99789.16;6495264;22;20011;-71
2022/11/24 04:07:36;;;;;;;9.75;4.03;;;;;;;5.21;100.00;99791.09;6495007;22;20000;-71
2022/11/24 04:10:06;;;;;;;11.52;4.15;;;;;;;5.09;100.00;99796.59;6495420;22;20081;-71
2022/11/24 04:12:43;;;;;;;10.75;4.18;;;;;;;5.00;100.00;99796.81;6495937;22;20007;-71
2022/11/24 04:15:17;;;;;;;8.02;3.70;;;;;;;5.00;100.00;99799.41;6457575;22;20103;-71
2022/11/24 04:17:49;;;;;;;11.93;4.15;;;;;;;5.00;100.00;99804.56;6494615;22;20003;-70
2022/11/24 04:20:19;;;;;;;8.05;3.83;;;;;;;5.04;100.00;99807.94;6495264;22;20346;-72
2022/11/24 04:22:50;;;;;;;10.10;4.20;;;;;;;5.02;100.00;99805.41;6484566;22;19996;-71
2022/11/24 04:25:21;;;;;;;11.25;4.28;;;;;;;5.01;100.00;99802.84;6494423;22;20454;-71
2022/11/24 04:27:52;;;;;;;8.60;3.83;;;;;;;5.00;100.00;99807.16;6484627;22;19998;-71
2022/11/24 04:30:24;;;;;;;10.57;3.85;;;;;;;5.14;100.00;99809.41;6495733;22;20011;-71
2022/11/24 04:32:56;;;;;;;7.78;3.60;;;;;;;5.27;100.00;99811.63;6457530;22;20019;-71
2022/11/24 04:35:26;;;;;;;10.02;4.00;;;;;;;5.23;100.00;99815.22;6495033;22;20010;-71
2022/11/24 04:38:00;;;;;;;9.38;3.67;;;;;;;5.12;100.00;99812.03;6494903;22;20052;-71
2022/11/24 04:40:30;;;;;;;7.05;3.45;;;;;;;5.18;100.00;99817.03;6456685;22;20008;-71
2022/11/24 04:43:01;;;;;;;8.63;3.78;;;;;;;5.09;100.00;99817.31;6495285;22;20022;-71
2022/11/24 04:45:31;;;;;;;9.13;3.50;;;;;;;5.18;100.00;99819.63;6494754;22;20491;-71
2022/11/24 04:48:01;;;;;;;7.65;3.75;;;;;;;5.18;100.00;99824.81;6495748;22;20310;-71
2022/11/24 04:50:32;;;;;;;9.70;3.60;;;;;;;5.19;100.00;99823.94;6494235;22;20427;-71
2022/11/24 04:53:02;;;;;;;9.88;3.25;;;;;;;5.23;100.00;99825.56;6492627;22;20017;-72
2022/11/24 04:55:32;;;;;;;14.10;3.67;;;;;;;5.20;100.00;99829.97;6455109;22;20183;-71
2022/11/24 04:58:03;;;;;;;10.18;4.03;;;;;;;5.33;100.00;99837.38;6493480;22;19996;-72
2022/11/24 05:00:33;;;;;;;13.10;4.18;;;;;;;5.29;100.00;99842.69;6494614;22;20375;-71
2022/11/24 05:03:04;;;;;;;10.00;3.55;;;;;;;5.29;100.00;99843.53;6457572;22;20435;-71
2022/11/24 05:05:35;;;;;;;8.30;3.25;;;;;;;5.32;100.00;99847.78;6483633;22;20004;-72
2022/11/24 05:08:05;;;;;;;11.25;3.92;;;;;;;5.16;100.00;99844.72;6482762;22;20007;-72
2022/11/24 05:10:36;;;;;;;10.13;3.80;;;;;;;5.12;100.00;99855.22;6494713;22;20015;-72
2022/11/24 05:13:09;;;;;;;7.70;3.78;;;;;;;5.13;100.00;99855.16;6495193;22;20027;-72
2022/11/24 05:15:41;;;;;;;15.30;4.00;;;;;;;5.08;100.00;99854.44;6494877;22;20218;-71
2022/11/24 05:18:14;;;;;;;8.98;4.00;;;;;;;5.12;100.00;99858.66;6493587;22;20000;-71
2022/11/24 05:20:44;;;;;;;10.80;3.70;;;;;;;5.17;100.00;99856.78;6493672;22;20007;-71
2022/11/24 05:23:15;;;;;;;8.00;3.88;;;;;;;5.07;100.00;99872.59;6457176;22;20003;-71
2022/11/24 05:25:45;;;;;;;12.45;3.83;;;;;;;5.03;100.00;99869.25;6493786;22;20259;-71
2022/11/24 05:28:16;;;;;;;6.32;3.80;;;;;;;4.96;100.00;99870.28;6494426;22;20440;-71
2022/11/24 05:30:47;;;;;;;13.30;4.43;;;;;;;4.94;100.00;99869.47;6494761;22;20384;-71
2022/11/24 05:33:18;;;;;;;8.55;3.78;;;;;;;4.99;100.00;99877.13;6495435;22;20082;-71
2022/11/24 05:35:49;;;;;;;9.45;4.10;;;;;;;4.90;100.00;99875.59;6457596;22;20010;-71
2022/11/24 05:38:21;;;;;;;12.55;4.25;;;;;;;5.17;100.00;99877.50;6495132;22;20000;-71
2022/11/24 05:40:51;;;;;;;9.38;3.72;;;;;;;5.09;100.00;99882.03;6457044;22;20012;-71
2022/11/24 05:43:21;;;;;;;7.30;3.55;;;;;;;5.20;100.00;99876.59;6496020;22;20078;-71
2022/11/24 05:45:52;;;;;;;8.75;3.78;;;;;;;5.14;100.00;99877.59;6483541;22;20009;-71
2022/11/24 05:48:22;;;;;;;8.70;3.90;;;;;;;5.18;100.00;99884.38;6495485;22;20046;-71
2022/11/24 05:50:57;;;;;;;12.30;3.63;;;;;;;5.15;100.00;99884.47;6493975;22;20405;-71
2022/11/24 05:53:27;;;;;;;7.20;3.47;;;;;;;5.12;100.00;99894.06;6495553;22;20242;-71
2022/11/24 05:55:57;;;;;;;11.55;3.70;;;;;;;4.85;100.00;99895.59;6495482;22;20094;-72
2022/11/24 05:58:28;;;;;;;6.70;3.40;;;;;;;4.85;100.00;99900.75;6495342;22;20019;-71
2022/11/24 06:00:58;;;;;;;12.48;3.90;;;;;;;4.85;100.00;99900.75;6494975;22;20004;-72
2022/11/24 06:03:29;;;;;;;8.95;3.90;;;;;;;4.75;100.00;99906.16;6456288;22;20003;-71
2022/11/24 06:05:59;;;;;;;11.88;4.63;;;;;;;4.58;100.00;99901.38;6494805;22;20011;-71
2022/11/24 06:08:29;;;;;;;11.30;4.15;;;;;;;4.53;100.00;99898.06;6495079;22;20006;-71
2022/11/24 06:11:18;;;;;;;7.72;3.90;;;;;;;4.64;100.00;99905.56;6495452;22;20342;-72
2022/11/24 06:13:49;;;;;;;8.50;3.83;;;;;;;4.48;100.00;99905.03;6457691;22;20011;-71
2022/11/24 06:16:19;;;;;;;10.18;3.97;;;;;;;4.61;100.00;99909.06;6494502;22;20003;-71
2022/11/24 06:18:49;;;;;;;9.02;3.88;;;;;;;4.62;100.00;99905.59;6494795;22;20042;-71
2022/11/24 06:21:20;;;;;;;10.23;4.10;;;;;;;4.57;100.00;99914.34;6456836;22;20007;-71
2022/11/24 06:23:50;;;;;;;10.80;3.78;;;;;;;4.58;100.00;99910.84;6494801;22;20374;-71
2022/11/24 06:26:20;;;;;;;9.30;3.92;;;;;;;4.63;100.00;99920.22;6483667;22;20127;-71
2022/11/24 06:28:51;;;;;;;9.77;3.70;;;;;;;4.73;100.00;99920.88;6494354;22;20476;-72
2022/11/24 06:31:22;;;;;;;13.73;3.55;;;;;;;4.79;100.00;99931.09;6494399;22;20003;-71
2022/11/24 06:33:52;;;;;;;10.25;4.07;;;;;;;4.77;100.00;99932.88;6496164;22;20000;-71
2022/11/24 06:36:22;;;;;;;10.40;3.50;;;;;;;4.87;100.00;99929.19;6456698;22;19999;-71
2022/11/24 06:38:53;;;;;;;10.55;3.40;;;;;;;4.84;100.00;99924.91;6493723;22;20443;-72
2022/11/24 06:41:23;;;;;;;9.10;3.75;;;;;;;4.58;100.00;99927.25;6494420;22;20008;-72
2022/11/24 06:43:54;;;;;;;7.82;3.15;;;;;;;4.44;100.00;99933.63;6495562;22;20010;-72
2022/11/24 06:46:24;;;;;;;9.23;3.90;;;;;;;4.33;100.00;99920.88;6494117;22;20017;-72
2022/11/24 06:48:54;;;;;;;9.27;4.10;;;;;;;4.29;100.00;99921.84;6492440;22;19996;-71
2022/11/24 06:51:25;;;;;;;10.95;3.70;;;;;;;4.35;100.00;99921.72;6491037;22;20054;-71
2022/11/24 06:53:56;;;;;;;9.70;3.65;;;;;;;4.37;100.00;99935.47;6494643;22;20006;-72
2022/11/24 06:56:26;;;;;;;10.30;3.92;;;;;;;4.27;100.00;99931.38;6493384;22;20003;-72
2022/11/24 06:58:56;;;;;;;11.50;3.78;;;;;;;4.38;100.00;99934.59;6493409;22;19999;-72
2022/11/24 07:01:28;;;;;;;7.90;3.53;;;;;;;4.48;100.00;99937.84;6493563;22;20301;-72
2022/11/24 07:03:58;;;;;;;11.57;3.25;;;;;;;4.40;100.00;99947.47;6457100;22;20004;-72
2022/11/24 07:06:30;;;;;;;8.38;3.40;;;;;;;4.41;100.00;99950.03;6493007;22;20454;-72
2022/11/24 07:09:00;;;;;;;18.17;3.55;;;;;;;4.49;100.00;99961.06;6495123;22;20004;-71
2022/11/24 07:11:30;;;;;;;10.73;3.47;;;;;;;4.58;100.00;99955.72;6495522;22;20004;-72
2022/11/24 07:14:01;;;;;;;14.45;3.78;;;;;;;4.77;100.00;99964.78;6496757;22;20000;-72
2022/11/24 07:16:31;;;;;;;11.77;3.70;;;;;;;4.89;100.00;99958.47;6496212;22;20074;-71
2022/11/24 07:19:02;;;;;;;10.98;3.58;;;;;;;5.01;100.00;99959.03;6496354;22;20316;-72
2022/11/24 07:21:32;;;;;;;15.23;3.80;;;;;;;5.12;100.00;99962.22;6483548;22;20086;-71
2022/11/24 07:24:03;;;;;;;14.15;3.85;;;;;;;5.33;100.00;99968.66;6496695;22;20434;-71
2022/11/24 07:26:36;;;;;;;15.48;4.05;;;;;;;5.35;100.00;99967.69;6458297;22;20006;-72
2022/11/24 07:29:06;;;;;;;15.18;3.97;;;;;;;5.35;100.00;99970.28;6458832;22;20038;-71
2022/11/24 07:31:36;;;;;;;11.02;3.33;;;;;;;5.57;100.00;99968.88;6459640;22;20229;-71
2022/11/24 07:34:07;;;;;;;10.55;3.25;;;;;;;5.57;100.00;99977.50;6496467;22;20027;-71
2022/11/24 07:36:37;;;;;;;13.75;3.97;;;;;;;5.77;100.00;99980.44;6496245;22;20011;-72
2022/11/24 07:39:07;;;;;;;12.65;3.45;;;;;;;5.77;100.00;99979.59;6496950;22;19999;-71
2022/11/24 07:41:38;;;;;;;12.27;3.92;;;;;;;5.78;100.00;99976.97;6497274;22;20053;-72
2022/11/24 07:44:08;;;;;;;9.43;3.30;;;;;;;5.76;100.00;99988.25;6497459;22;20381;-70
2022/11/24 07:46:38;;;;;;;15.05;4.47;;;;;;;5.87;100.00;99991.44;6496611;22;20418;-71
2022/11/24 07:49:09;;;;;;;14.45;3.50;;;;;;;5.80;100.00;99997.69;6495943;22;20006;-71
2022/11/24 07:51:39;;;;;;;14.88;3.42;;;;;;;5.75;100.00;99996.94;6496548;22;20038;-71
2022/11/24 07:54:10;;;;;;;14.77;3.97;;;;;;;5.87;100.00;100002.69;6497067;22;20412;-71
2022/11/24 07:56:40;;;;;;;12.00;3.55;;;;;;;5.84;100.00;99999.31;6496779;22;20053;-71
2022/11/24 07:59:11;;;;;;;11.70;3.40;;;;;;;5.89;100.00;100006.09;6496149;22;20004;-71
2022/11/24 08:01:41;;;;;;;13.13;3.25;;;;;;;5.96;100.00;100012.81;6496124;22;20308;-72
2022/11/24 08:04:11;;;;;;;11.50;4.18;;;;;;;6.15;100.00;100008.00;6497123;22;20070;-72
2022/11/24 08:06:42;;;;;;;16.25;3.70;;;;;;;5.98;100.00;100018.81;6496555;22;20003;-71
2022/11/24 08:09:12;;;;;;;11.15;3.42;;;;;;;6.09;100.00;100015.94;6496334;22;20389;-72
2022/11/24 08:11:42;;;;;;;7.43;2.88;;;;;;;5.99;100.00;100009.28;6497141;22;20007;-71
2022/11/24 08:14:12;;;;;;;11.68;3.40;;;;;;;5.96;100.00;100017.16;6495440;22;20046;-72
2022/11/24 08:16:43;;;;;;;9.90;2.97;;;;;;;5.95;100.00;100020.63;6496087;22;20008;-72
2022/11/24 08:19:13;;;;;;;10.43;2.90;;;;;;;5.95;100.00;100020.63;6494186;22;20024;-71
2022/11/24 08:21:43;;;;;;;13.57;3.35;;;;;;;5.92;100.00;100020.72;6484132;22;20002;-71
2022/11/24 08:24:15;;;;;;;12.90;3.10;;;;;;;6.01;100.00;100026.53;6495688;22;20011;-71
2022/11/24 08:26:45;;;;;;;17.25;4.20;;;;;;;6.07;100.00;100025.50;6497058;22;20010;-71
2022/11/24 08:29:15;;;;;;;20.38;4.20;;;;;;;6.29;100.00;100026.63;6496672;22;19995;-71
2022/11/24 08:31:46;;;;;;;12.20;3.83;;;;;;;6.29;100.00;100031.81;6497001;22;20004;-72
2022/11/24 08:34:16;;;;;;;13.93;3.53;;;;;;;6.11;100.00;100027.97;6496319;22;20026;-72
2022/11/24 08:36:46;;;;;;;9.32;3.25;;;;;;;6.30;100.00;100041.31;6495125;22;20014;-72
2022/11/24 08:39:17;;;;;;;6.90;3.00;;;;;;;6.29;100.00;100042.19;6495455;22;20003;-71
2022/11/24 08:41:48;;;;;;;10.18;3.65;;;;;;;6.33;100.00;100049.88;6501298;22;20416;-73
2022/11/24 08:44:18;;;;;;;11.95;3.60;;;;;;;6.32;100.00;100049.91;6491170;22;20004;-72
2022/11/24 08:46:49;;;;;;;12.82;3.65;;;;;;;6.32;100.00;100052.50;6501508;22;20090;-73
2022/11/24 08:49:20;;;;;;;11.90;3.30;;;;;;;6.31;100.00;100051.66;6501215;22;19995;-73
2022/11/24 08:51:50;;;;;;;11.85;3.95;;;;;;;6.40;100.00;100056.59;6501610;22;20441;-72
2022/11/24 08:54:21;;;;;;;17.40;3.47;;;;;;;6.58;100.00;100055.25;6501859;22;20032;-73
2022/11/24 08:56:51;;;;;;;12.68;3.45;;;;;;;6.59;100.00;100060.38;6501347;22;20080;-72
2022/11/24 08:59:22;;;;;;;13.82;3.78;;;;;;;6.67;100.00;100066.22;6501188;22;20022;-73
2022/11/24 09:01:52;;;;;;;15.20;3.50;;;;;;;6.70;100.00;100065.25;6501172;22;20074;-73
2022/11/24 09:04:22;;;;;;;15.43;3.83;;;;;;;6.74;100.00;100077.28;6499824;22;20442;-73
2022/11/24 09:06:53;;;;;;;11.73;4.20;;;;;;;6.70;100.00;100078.25;6501153;22;20361;-72
2022/11/24 09:09:23;;;;;;;15.63;4.60;;;;;;;6.78;100.00;100074.53;6500555;22;20045;-73
2022/11/24 09:11:53;;;;;;;10.55;3.90;;;;;;;6.77;100.00;100078.03;6501512;22;20008;-72
2022/11/24 09:14:23;;;;;;;12.43;3.38;;;;;;;6.99;100.00;100073.94;6499266;22;20003;-72
2022/11/24 09:16:54;;;;;;;14.80;3.30;;;;;;;7.04;100.00;100076.38;6499393;22;20158;-72
2022/11/24 09:19:24;;;;;;;16.08;3.85;;;;;;;7.10;100.00;100076.22;6461947;22;19999;-72
2022/11/24 09:21:54;;;;;;;13.82;3.30;;;;;;;7.16;100.00;100076.91;6499762;22;19999;-72
2022/11/24 09:24:25;;;;;;;16.15;3.33;;;;;;;7.21;100.00;100084.53;6499294;22;20006;-71
2022/11/24 09:26:55;;;;;;;13.90;3.30;;;;;;;7.21;100.00;100077.59;6501025;22;20002;-72
2022/11/24 09:29:26;;;;;;;9.23;3.42;;;;;;;7.35;100.00;100078.88;6500831;22;20010;-72
2022/11/24 09:31:56;;;;;;;14.95;3.35;;;;;;;7.50;100.00;100091.41;6500981;22;20039;-72
2022/11/24 09:34:26;;;;;;;14.40;3.53;;;;;;;7.70;100.00;100089.03;6500941;22;20363;-72
2022/11/24 09:36:57;;;;;;;12.88;3.40;;;;;;;7.84;100.00;100094.66;6501006;22;20004;-72
2022/11/24 09:39:28;;;;;;;11.38;3.65;;;;;;;8.04;100.00;100102.66;6500506;22;20007;-71
2022/11/24 09:42:30;;;;;;;13.85;3.50;;;;;;;8.17;100.00;100093.53;6463609;22;19995;-72
2022/11/24 09:45:26;;;;;;;19.63;3.17;;;;;;;8.11;100.00;100093.75;6500826;22;20045;-72
2022/11/24 09:48:03;;;;;;;10.13;2.75;;;;;;;8.14;100.00;100098.84;6489898;22;20486;-72
2022/11/24 09:50:35;;;;;;;;;;;;;;;8.35;100.00;100086.91;6501170;22;20506;-73
2022/11/24 09:53:19;;;;;;;10.75;2.83;;;;;;;8.40;100.00;100098.84;6490108;22;20246;-72
2022/11/24 09:55:52;;;;;;;11.38;3.20;;;;;;;8.49;100.00;100101.13;6500687;22;19999;-73
2022/11/24 09:58:57;;;;;;;12.25;2.97;;;;;;;8.49;100.00;100097.66;6500761;22;20423;-72
2022/11/24 10:01:30;;;;;;;12.57;3.15;;;;;;;8.61;100.00;100092.91;6500601;22;19999;-72
2022/11/24 10:04:02;;;;;;;14.38;3.05;;;;;;;8.72;100.00;100097.72;6500953;22;20500;-72
2022/11/24 10:06:46;;;;;;;12.70;3.38;;;;;;;8.62;100.00;100092.00;6499969;22;20438;-72
2022/11/24 10:09:31;;;;;;;12.98;2.88;;;;;;;8.62;100.00;100097.22;6499665;22;20058;-72
2022/11/24 10:12:40;;;;;;;8.95;2.67;;;;;;;8.76;100.00;100104.53;6499919;22;19996;-73
2022/11/24 10:15:13;;;;;;;8.23;2.92;;;;;;;8.87;100.00;100108.44;6500395;22;20000;-72
2022/11/24 10:17:53;;;;;;;16.67;3.60;;;;;;;9.02;100.00;100107.03;6499825;22;20002;-73
2022/11/24 10:20:29;;;;;;;18.33;3.83;;;;;;;9.05;100.00;100112.97;6499985;22;20034;-72
2022/11/24 10:23:30;;;;;;;16.05;4.60;;;;;;;9.32;100.00;100110.19;6501050;22;19996;-73
2022/11/24 10:26:06;;;;;;;15.25;2.90;;;;;;;9.39;100.00;100108.19;6499640;22;20377;-73
2022/11/24 10:28:48;;;;;;;15.30;3.67;;;;;;;9.39;100.00;100116.91;6462048;22;20004;-73
2022/11/24 10:31:34;;;;;;;11.07;2.78;;;;;;;9.60;100.00;100117.81;6489686;22;20012;-72
2022/11/24 10:34:25;;;;;;;;;;;;;;;9.52;100.00;100117.25;6501184;22;20000;-71
2022/11/24 10:37:07;;;;;;;12.85;2.97;;;;;;;9.56;100.00;100116.22;6480469;22;19994;-72
2022/11/24 10:40:02;;;;;;;13.65;3.63;;;;;;;9.75;100.00;100117.22;6500117;22;20023;-73
2022/11/24 10:42:37;;;;;;;12.90;3.20;;;;;;;9.64;100.00;100119.41;6462610;22;20339;-73
2022/11/24 10:45:10;;;;;;;14.53;3.13;;;;;;;9.66;100.00;100114.97;6462063;22;20379;-73
2022/11/24 10:47:42;;;;;;;14.13;3.08;;;;;;;9.78;100.00;100122.31;6501388;22;20022;-73
2022/11/24 10:50:25;;;;;;;12.43;3.13;;;;;;;9.68;100.00;100121.81;6463800;22;20023;-73
2022/11/24 10:53:26;;;;;;;18.10;3.25;;;;;;;9.78;100.00;100123.16;6501072;22;20371;-73
2022/11/24 10:55:59;;;;;;;14.52;4.20;;;;;;;9.61;100.00;100117.75;6502049;22;20004;-72
2022/11/24 10:58:35;;;;;;;12.95;3.42;;;;;;;9.56;100.00;100117.09;6502188;22;20435;-73
2022/11/24 11:01:14;;;;;;;14.48;3.85;;;;;;;9.61;100.00;100119.50;6503107;22;20180;-72
2022/11/24 11:03:54;;;;;;;15.27;3.15;;;;;;;9.54;100.00;100125.88;6501630;22;20394;-73
2022/11/24 11:06:26;;;;;;;11.18;2.72;;;;;;;9.50;100.00;100126.91;6501724;22;20003;-74
2022/11/24 11:09:06;;;;;;;15.52;3.83;;;;;;;9.49;100.00;100125.22;6501965;22;20003;-73
2022/11/24 11:11:38;;;;;;;16.95;3.80;;;;;;;9.54;100.00;100120.66;6501924;22;20000;-72
2022/11/24 11:14:11;;;;;;;13.05;3.50;;;;;;;9.63;100.00;100126.38;6501575;22;20369;-73
2022/11/24 11:16:52;;;;;;;13.55;3.47;;;;;;;9.59;100.00;100127.41;6501891;22;20085;-73
2022/11/24 11:19:46;;;;;;;16.55;3.85;;;;;;;9.53;100.00;100121.56;6464130;22;20339;-73
2022/11/24 11:22:28;;;;;;;16.40;5.35;;;;;;;9.62;100.00;100131.66;6463882;22;20342;-72
2022/11/24 11:25:29;;;;;;;11.73;3.17;;;;;;;9.75;100.00;100122.44;6500075;22;20439;-73
2022/11/24 11:28:24;;;;;;;15.90;3.70;;;;;;;9.68;100.00;100126.19;6489887;22;20000;-73
2022/11/24 11:31:16;;;;;;;14.73;3.22;;;;;;;9.61;100.00;100132.53;6501778;22;20031;-73
2022/11/24 11:34:04;;;;;;;15.40;4.57;;;;;;;9.73;100.00;100134.69;6501413;22;20010;-73
2022/11/24 11:36:44;;;;;;;11.77;2.67;;;;;;;9.76;100.00;100134.56;6500034;22;19999;-73
2022/11/24 11:39:22;;;;;;;11.98;2.90;;;;;;;9.66;100.00;100138.47;6501169;22;20009;-73
2022/11/24 11:42:04;;;;;;;15.55;3.10;;;;;;;9.63;100.00;100138.59;6462565;22;20091;-73
2022/11/24 11:44:47;;;;;;;15.75;4.20;;;;;;;9.67;100.00;100140.97;6500744;22;20026;-72
2022/11/24 11:47:27;;;;;;;13.88;2.95;;;;;;;9.72;100.00;100138.22;6501457;22;20092;-73
2022/11/24 11:49:58;;;;;;;15.93;2.97;;;;;;;9.59;100.00;100142.19;6500935;22;20346;-72
2022/11/24 11:52:54;;;;;;;13.23;2.83;;;;;;;9.60;100.00;100149.09;6498701;22;20022;-72
2022/11/24 11:55:45;;;;;;;13.50;2.95;;;;;;;9.76;100.00;100151.09;6466112;22;20339;-72